sensor_id;sensor_type;location;lat;lon;timestamp;temperature;humidity
75275;HTU21D;63871;47.216;39.684;2023-06-14T00:01:48;19.09;82.29
75275;HTU21D;63871;47.216;39.684;2023-06-14T00:07:17;18.94;82.52
75275;HTU21D;63871;47.216;39.684;2023-06-14T00:09:44;18.88;82.66
75275;HTU21D;63871;47.216;39.684;2023-06-14T00:12:09;18.82;82.85
75275;HTU21D;63871;47.216;39.684;2023-06-14T00:14:35;18.77;83.02
75275;HTU21D;63871;47.216;39.684;2023-06-14T00:17:01;18.70;83.30
75275;HTU21D;63871;47.216;39.684;2023-06-14T00:19:28;18.63;83.45
75275;HTU21D;63871;47.216;39.684;2023-06-14T00:21:54;18.58;83.68
75275;HTU21D;63871;47.216;39.684;2023-06-14T00:24:39;18.55;83.97
75275;HTU21D;63871;47.216;39.684;2023-06-14T00:27:42;18.50;84.16
75275;HTU21D;63871;47.216;39.684;2023-06-14T00:30:08;18.43;84.37
75275;HTU21D;63871;47.216;39.684;2023-06-14T00:32:34;18.40;84.53
75275;HTU21D;63871;47.216;39.684;2023-06-14T00:35:00;18.37;84.62
75275;HTU21D;63871;47.216;39.684;2023-06-14T00:37:26;18.34;84.85
75275;HTU21D;63871;47.216;39.684;2023-06-14T00:39:52;18.32;85.03
75275;HTU21D;63871;47.216;39.684;2023-06-14T00:42:28;18.30;85.21
75275;HTU21D;63871;47.216;39.684;2023-06-14T00:44:54;18.28;85.15
75275;HTU21D;63871;47.216;39.684;2023-06-14T00:47:20;18.28;85.19
75275;HTU21D;63871;47.216;39.684;2023-06-14T00:50:08;18.27;85.23
75275;HTU21D;63871;47.216;39.684;2023-06-14T00:52:34;18.24;85.15
75275;HTU21D;63871;47.216;39.684;2023-06-14T00:55:01;18.22;85.26
75275;HTU21D;63871;47.216;39.684;2023-06-14T00:57:28;18.21;85.34
75275;HTU21D;63871;47.216;39.684;2023-06-14T01:00:13;18.20;85.35
75275;HTU21D;63871;47.216;39.684;2023-06-14T01:02:39;18.19;85.29
75275;HTU21D;63871;47.216;39.684;2023-06-14T01:05:09;18.19;85.20
75275;HTU21D;63871;47.216;39.684;2023-06-14T01:10:47;18.15;85.41
75275;HTU21D;63871;47.216;39.684;2023-06-14T01:13:27;18.17;85.52
75275;HTU21D;63871;47.216;39.684;2023-06-14T01:15:54;18.14;85.43
75275;HTU21D;63871;47.216;39.684;2023-06-14T01:18:21;18.13;85.48
75275;HTU21D;63871;47.216;39.684;2023-06-14T01:20:50;18.14;85.62
75275;HTU21D;63871;47.216;39.684;2023-06-14T01:23:20;18.14;85.67
75275;HTU21D;63871;47.216;39.684;2023-06-14T01:26:04;18.14;85.70
75275;HTU21D;63871;47.216;39.684;2023-06-14T01:28:31;18.13;85.68
75275;HTU21D;63871;47.216;39.684;2023-06-14T01:31:01;18.14;85.71
75275;HTU21D;63871;47.216;39.684;2023-06-14T01:33:31;18.13;85.75
75275;HTU21D;63871;47.216;39.684;2023-06-14T01:35:58;18.12;85.75
75275;HTU21D;63871;47.216;39.684;2023-06-14T01:38:26;18.13;85.77
75275;HTU21D;63871;47.216;39.684;2023-06-14T01:40:53;18.14;85.74
75275;HTU21D;63871;47.216;39.684;2023-06-14T01:43:20;18.14;85.67
75275;HTU21D;63871;47.216;39.684;2023-06-14T01:45:48;18.15;85.64
75275;HTU21D;63871;47.216;39.684;2023-06-14T01:48:18;18.15;85.51
75275;HTU21D;63871;47.216;39.684;2023-06-14T01:50:45;18.19;85.42
75275;HTU21D;63871;47.216;39.684;2023-06-14T01:53:11;18.18;85.38
75275;HTU21D;63871;47.216;39.684;2023-06-14T01:55:37;18.20;85.35
75275;HTU21D;63871;47.216;39.684;2023-06-14T01:58:06;18.20;85.24
75275;HTU21D;63871;47.216;39.684;2023-06-14T02:00:32;18.21;85.15
75275;HTU21D;63871;47.216;39.684;2023-06-14T02:02:58;18.22;85.12
75275;HTU21D;63871;47.216;39.684;2023-06-14T02:05:26;18.22;85.04
75275;HTU21D;63871;47.216;39.684;2023-06-14T02:08:10;18.24;84.93
75275;HTU21D;63871;47.216;39.684;2023-06-14T02:10:37;18.24;84.85
75275;HTU21D;63871;47.216;39.684;2023-06-14T02:13:02;18.24;84.72
75275;HTU21D;63871;47.216;39.684;2023-06-14T02:15:29;18.26;84.71
75275;HTU21D;63871;47.216;39.684;2023-06-14T02:18:01;18.26;84.59
75275;HTU21D;63871;47.216;39.684;2023-06-14T02:20:27;18.29;84.53
75275;HTU21D;63871;47.216;39.684;2023-06-14T02:22:54;18.30;84.40
75275;HTU21D;63871;47.216;39.684;2023-06-14T02:25:38;18.32;84.29
75275;HTU21D;63871;47.216;39.684;2023-06-14T02:28:07;18.32;84.09
75275;HTU21D;63871;47.216;39.684;2023-06-14T02:30:51;18.30;84.03
75275;HTU21D;63871;47.216;39.684;2023-06-14T02:33:17;18.32;84.04
75275;HTU21D;63871;47.216;39.684;2023-06-14T02:35:43;18.34;84.00
75275;HTU21D;63871;47.216;39.684;2023-06-14T02:38:09;18.36;83.87
75275;HTU21D;63871;47.216;39.684;2023-06-14T02:40:34;18.35;83.80
75275;HTU21D;63871;47.216;39.684;2023-06-14T02:43:00;18.37;83.75
75275;HTU21D;63871;47.216;39.684;2023-06-14T02:45:27;18.37;83.73
75275;HTU21D;63871;47.216;39.684;2023-06-14T02:47:53;18.39;83.65
75275;HTU21D;63871;47.216;39.684;2023-06-14T02:50:21;18.40;83.55
75275;HTU21D;63871;47.216;39.684;2023-06-14T02:55:33;18.43;83.51
75275;HTU21D;63871;47.216;39.684;2023-06-14T02:57:59;18.47;83.43
75275;HTU21D;63871;47.216;39.684;2023-06-14T03:00:25;18.47;83.41
75275;HTU21D;63871;47.216;39.684;2023-06-14T03:02:52;18.53;83.39
75275;HTU21D;63871;47.216;39.684;2023-06-14T03:05:20;18.56;83.31
75275;HTU21D;63871;47.216;39.684;2023-06-14T03:07:49;18.61;83.16
75275;HTU21D;63871;47.216;39.684;2023-06-14T03:10:16;18.64;83.07
75275;HTU21D;63871;47.216;39.684;2023-06-14T03:12:43;18.66;83.01
75275;HTU21D;63871;47.216;39.684;2023-06-14T03:15:29;18.72;82.94
75275;HTU21D;63871;47.216;39.684;2023-06-14T03:18:14;18.78;82.83
75275;HTU21D;63871;47.216;39.684;2023-06-14T03:20:41;18.82;82.64
75275;HTU21D;63871;47.216;39.684;2023-06-14T03:23:08;18.84;82.45
75275;HTU21D;63871;47.216;39.684;2023-06-14T03:25:34;18.85;82.33
75275;HTU21D;63871;47.216;39.684;2023-06-14T03:28:05;18.85;82.08
75275;HTU21D;63871;47.216;39.684;2023-06-14T03:30:31;18.85;81.95
75275;HTU21D;63871;47.216;39.684;2023-06-14T03:32:58;18.83;81.59
75275;HTU21D;63871;47.216;39.684;2023-06-14T03:35:28;18.81;81.46
75275;HTU21D;63871;47.216;39.684;2023-06-14T03:37:54;18.81;81.51
75275;HTU21D;63871;47.216;39.684;2023-06-14T03:43:06;18.81;81.51
75275;HTU21D;63871;47.216;39.684;2023-06-14T03:45:32;18.83;81.45
75275;HTU21D;63871;47.216;39.684;2023-06-14T03:47:59;18.80;81.42
75275;HTU21D;63871;47.216;39.684;2023-06-14T03:50:27;18.78;81.43
75275;HTU21D;63871;47.216;39.684;2023-06-14T03:52:52;18.76;81.45
75275;HTU21D;63871;47.216;39.684;2023-06-14T03:58:25;18.74;81.59
75275;HTU21D;63871;47.216;39.684;2023-06-14T04:00:51;18.76;81.62
75275;HTU21D;63871;47.216;39.684;2023-06-14T04:03:16;18.78;81.68
75275;HTU21D;63871;47.216;39.684;2023-06-14T04:05:43;18.84;81.73
75275;HTU21D;63871;47.216;39.684;2023-06-14T04:08:10;18.88;81.78
75275;HTU21D;63871;47.216;39.684;2023-06-14T04:10:36;18.94;81.63
75275;HTU21D;63871;47.216;39.684;2023-06-14T04:13:02;18.95;81.55
75275;HTU21D;63871;47.216;39.684;2023-06-14T04:15:28;18.98;81.43
75275;HTU21D;63871;47.216;39.684;2023-06-14T04:17:55;19.00;81.37
75275;HTU21D;63871;47.216;39.684;2023-06-14T04:20:23;19.06;81.35
75275;HTU21D;63871;47.216;39.684;2023-06-14T04:22:51;19.10;81.23
75275;HTU21D;63871;47.216;39.684;2023-06-14T04:25:18;19.15;81.10
75275;HTU21D;63871;47.216;39.684;2023-06-14T04:27:44;19.18;80.86
75275;HTU21D;63871;47.216;39.684;2023-06-14T04:30:10;19.22;80.74
75275;HTU21D;63871;47.216;39.684;2023-06-14T04:32:41;19.24;80.52
75275;HTU21D;63871;47.216;39.684;2023-06-14T04:35:10;19.26;80.52
75275;HTU21D;63871;47.216;39.684;2023-06-14T04:37:38;19.28;80.43
75275;HTU21D;63871;47.216;39.684;2023-06-14T04:40:08;19.35;80.40
75275;HTU21D;63871;47.216;39.684;2023-06-14T04:42:36;19.41;80.36
75275;HTU21D;63871;47.216;39.684;2023-06-14T04:45:04;19.45;80.17
75275;HTU21D;63871;47.216;39.684;2023-06-14T04:47:32;19.46;80.09
75275;HTU21D;63871;47.216;39.684;2023-06-14T04:49:59;19.46;80.04
75275;HTU21D;63871;47.216;39.684;2023-06-14T04:52:28;19.46;80.05
75275;HTU21D;63871;47.216;39.684;2023-06-14T04:54:55;19.45;79.84
75275;HTU21D;63871;47.216;39.684;2023-06-14T04:57:22;19.42;79.59
75275;HTU21D;63871;47.216;39.684;2023-06-14T04:59:49;19.40;79.91
75275;HTU21D;63871;47.216;39.684;2023-06-14T05:02:24;19.40;80.04
75275;HTU21D;63871;47.216;39.684;2023-06-14T05:04:51;19.41;79.85
75275;HTU21D;63871;47.216;39.684;2023-06-14T05:07:18;19.42;80.03
75275;HTU21D;63871;47.216;39.684;2023-06-14T05:09:47;19.46;80.10
75275;HTU21D;63871;47.216;39.684;2023-06-14T05:12:14;19.51;80.24
75275;HTU21D;63871;47.216;39.684;2023-06-14T05:14:44;19.56;80.20
75275;HTU21D;63871;47.216;39.684;2023-06-14T05:17:10;19.60;79.99
75275;HTU21D;63871;47.216;39.684;2023-06-14T05:19:35;19.66;79.96
75275;HTU21D;63871;47.216;39.684;2023-06-14T05:22:01;19.71;80.01
75275;HTU21D;63871;47.216;39.684;2023-06-14T05:24:28;19.77;79.90
75275;HTU21D;63871;47.216;39.684;2023-06-14T05:26:56;19.83;79.63
75275;HTU21D;63871;47.216;39.684;2023-06-14T05:29:22;19.85;79.31
75275;HTU21D;63871;47.216;39.684;2023-06-14T05:31:48;19.86;79.18
75275;HTU21D;63871;47.216;39.684;2023-06-14T05:34:13;19.89;79.24
75275;HTU21D;63871;47.216;39.684;2023-06-14T05:36:39;19.92;79.05
75275;HTU21D;63871;47.216;39.684;2023-06-14T05:39:05;19.96;78.96
75275;HTU21D;63871;47.216;39.684;2023-06-14T05:41:32;20.01;79.05
75275;HTU21D;63871;47.216;39.684;2023-06-14T05:43:58;20.05;78.85
75275;HTU21D;63871;47.216;39.684;2023-06-14T05:46:25;20.15;78.77
75275;HTU21D;63871;47.216;39.684;2023-06-14T05:48:51;20.20;78.50
75275;HTU21D;63871;47.216;39.684;2023-06-14T05:51:17;20.30;78.63
75275;HTU21D;63871;47.216;39.684;2023-06-14T05:53:46;20.42;78.34
75275;HTU21D;63871;47.216;39.684;2023-06-14T05:56:16;20.50;78.14
75275;HTU21D;63871;47.216;39.684;2023-06-14T05:58:44;20.62;77.94
75275;HTU21D;63871;47.216;39.684;2023-06-14T06:01:10;20.75;77.70
75275;HTU21D;63871;47.216;39.684;2023-06-14T06:03:36;20.86;77.21
75275;HTU21D;63871;47.216;39.684;2023-06-14T06:06:02;20.93;76.88
75275;HTU21D;63871;47.216;39.684;2023-06-14T06:08:29;21.00;76.06
75275;HTU21D;63871;47.216;39.684;2023-06-14T06:10:55;21.02;76.24
75275;HTU21D;63871;47.216;39.684;2023-06-14T06:13:21;21.10;76.24
75275;HTU21D;63871;47.216;39.684;2023-06-14T06:15:47;21.23;76.23
75275;HTU21D;63871;47.216;39.684;2023-06-14T06:18:13;21.36;76.00
75275;HTU21D;63871;47.216;39.684;2023-06-14T06:20:39;21.48;75.67
75275;HTU21D;63871;47.216;39.684;2023-06-14T06:23:05;21.62;75.45
75275;HTU21D;63871;47.216;39.684;2023-06-14T06:25:30;21.76;74.92
75275;HTU21D;63871;47.216;39.684;2023-06-14T06:27:57;21.90;74.34
75275;HTU21D;63871;47.216;39.684;2023-06-14T06:30:24;22.01;73.95
75275;HTU21D;63871;47.216;39.684;2023-06-14T06:32:50;22.07;73.27
75275;HTU21D;63871;47.216;39.684;2023-06-14T06:35:16;22.12;72.78
75275;HTU21D;63871;47.216;39.684;2023-06-14T06:37:43;22.19;73.14
75275;HTU21D;63871;47.216;39.684;2023-06-14T06:40:09;22.33;72.88
75275;HTU21D;63871;47.216;39.684;2023-06-14T06:42:36;22.44;72.00
75275;HTU21D;63871;47.216;39.684;2023-06-14T06:45:04;22.52;71.60
75275;HTU21D;63871;47.216;39.684;2023-06-14T06:47:30;22.65;71.26
75275;HTU21D;63871;47.216;39.684;2023-06-14T06:49:56;22.73;70.70
75275;HTU21D;63871;47.216;39.684;2023-06-14T06:52:22;22.79;70.13
75275;HTU21D;63871;47.216;39.684;2023-06-14T06:55:07;22.77;68.67
75275;HTU21D;63871;47.216;39.684;2023-06-14T06:57:34;22.68;67.74
75275;HTU21D;63871;47.216;39.684;2023-06-14T07:00:00;22.67;68.57
75275;HTU21D;63871;47.216;39.684;2023-06-14T07:02:26;22.71;69.10
75275;HTU21D;63871;47.216;39.684;2023-06-14T07:04:51;22.79;69.42
75275;HTU21D;63871;47.216;39.684;2023-06-14T07:07:17;22.83;69.09
75275;HTU21D;63871;47.216;39.684;2023-06-14T07:09:44;22.86;69.11
75275;HTU21D;63871;47.216;39.684;2023-06-14T07:12:11;22.92;68.95
75275;HTU21D;63871;47.216;39.684;2023-06-14T07:14:37;22.98;69.03
75275;HTU21D;63871;47.216;39.684;2023-06-14T07:17:03;23.03;68.68
75275;HTU21D;63871;47.216;39.684;2023-06-14T07:19:29;23.12;68.79
75275;HTU21D;63871;47.216;39.684;2023-06-14T07:21:56;23.23;68.71
75275;HTU21D;63871;47.216;39.684;2023-06-14T07:24:22;23.29;68.06
75275;HTU21D;63871;47.216;39.684;2023-06-14T07:26:48;23.34;67.27
75275;HTU21D;63871;47.216;39.684;2023-06-14T07:29:14;23.34;67.25
75275;HTU21D;63871;47.216;39.684;2023-06-14T07:31:42;23.42;67.15
75275;HTU21D;63871;47.216;39.684;2023-06-14T07:34:08;23.47;67.14
75275;HTU21D;63871;47.216;39.684;2023-06-14T07:36:33;23.56;66.90
75275;HTU21D;63871;47.216;39.684;2023-06-14T07:38:59;23.67;66.77
75275;HTU21D;63871;47.216;39.684;2023-06-14T07:41:25;23.79;66.46
75275;HTU21D;63871;47.216;39.684;2023-06-14T07:43:51;23.91;66.30
75275;HTU21D;63871;47.216;39.684;2023-06-14T07:46:16;24.04;66.11
75275;HTU21D;63871;47.216;39.684;2023-06-14T07:48:42;24.15;66.04
75275;HTU21D;63871;47.216;39.684;2023-06-14T07:51:08;24.32;66.01
75275;HTU21D;63871;47.216;39.684;2023-06-14T07:53:34;24.51;65.27
75275;HTU21D;63871;47.216;39.684;2023-06-14T07:56:00;24.66;64.90
75275;HTU21D;63871;47.216;39.684;2023-06-14T07:58:25;24.86;64.20
75275;HTU21D;63871;47.216;39.684;2023-06-14T08:00:51;25.03;63.63
75275;HTU21D;63871;47.216;39.684;2023-06-14T08:03:17;25.28;63.32
75275;HTU21D;63871;47.216;39.684;2023-06-14T08:05:44;25.51;62.14
75275;HTU21D;63871;47.216;39.684;2023-06-14T08:08:10;25.79;62.63
75275;HTU21D;63871;47.216;39.684;2023-06-14T08:10:35;26.27;62.02
75275;HTU21D;63871;47.216;39.684;2023-06-14T08:13:01;26.67;59.93
75275;HTU21D;63871;47.216;39.684;2023-06-14T08:15:27;26.87;59.43
75275;HTU21D;63871;47.216;39.684;2023-06-14T08:17:53;26.99;58.25
75275;HTU21D;63871;47.216;39.684;2023-06-14T08:20:18;27.15;58.21
75275;HTU21D;63871;47.216;39.684;2023-06-14T08:22:44;27.34;57.50
75275;HTU21D;63871;47.216;39.684;2023-06-14T08:25:11;27.46;56.18
75275;HTU21D;63871;47.216;39.684;2023-06-14T08:27:37;27.54;55.16
75275;HTU21D;63871;47.216;39.684;2023-06-14T08:30:03;27.60;55.26
75275;HTU21D;63871;47.216;39.684;2023-06-14T08:32:29;27.65;54.33
75275;HTU21D;63871;47.216;39.684;2023-06-14T08:34:55;27.83;55.20
75275;HTU21D;63871;47.216;39.684;2023-06-14T08:37:20;28.02;54.91
75275;HTU21D;63871;47.216;39.684;2023-06-14T08:39:46;28.10;53.70
75275;HTU21D;63871;47.216;39.684;2023-06-14T08:42:14;28.02;52.29
75275;HTU21D;63871;47.216;39.684;2023-06-14T08:44:40;28.01;53.34
75275;HTU21D;63871;47.216;39.684;2023-06-14T08:47:07;28.17;53.32
75275;HTU21D;63871;47.216;39.684;2023-06-14T08:49:33;28.35;53.07
75275;HTU21D;63871;47.216;39.684;2023-06-14T08:52:00;28.64;51.27
75275;HTU21D;63871;47.216;39.684;2023-06-14T08:54:29;28.69;50.60
75275;HTU21D;63871;47.216;39.684;2023-06-14T08:56:59;28.63;50.63
75275;HTU21D;63871;47.216;39.684;2023-06-14T08:59:28;28.49;51.31
75275;HTU21D;63871;47.216;39.684;2023-06-14T09:01:56;28.40;51.78
75275;HTU21D;63871;47.216;39.684;2023-06-14T09:04:25;28.27;51.22
75275;HTU21D;63871;47.216;39.684;2023-06-14T09:06:58;28.26;51.67
75275;HTU21D;63871;47.216;39.684;2023-06-14T09:09:24;28.53;51.59
75275;HTU21D;63871;47.216;39.684;2023-06-14T09:11:51;28.94;51.37
75275;HTU21D;63871;47.216;39.684;2023-06-14T09:14:23;29.27;50.21
75275;HTU21D;63871;47.216;39.684;2023-06-14T09:16:52;29.48;50.26
75275;HTU21D;63871;47.216;39.684;2023-06-14T09:19:23;29.59;48.43
75275;HTU21D;63871;47.216;39.684;2023-06-14T09:21:49;29.61;49.04
75275;HTU21D;63871;47.216;39.684;2023-06-14T09:24:17;29.76;48.78
75275;HTU21D;63871;47.216;39.684;2023-06-14T09:26:42;29.83;48.66
75275;HTU21D;63871;47.216;39.684;2023-06-14T09:29:09;29.97;48.41
75275;HTU21D;63871;47.216;39.684;2023-06-14T09:31:35;30.10;48.14
75275;HTU21D;63871;47.216;39.684;2023-06-14T09:34:02;30.33;47.79
75275;HTU21D;63871;47.216;39.684;2023-06-14T09:36:31;30.57;47.45
75275;HTU21D;63871;47.216;39.684;2023-06-14T09:38:58;30.90;45.87
75275;HTU21D;63871;47.216;39.684;2023-06-14T09:41:38;31.22;46.03
75275;HTU21D;63871;47.216;39.684;2023-06-14T09:44:06;31.64;44.74
75275;HTU21D;63871;47.216;39.684;2023-06-14T09:46:33;31.88;44.45
75275;HTU21D;63871;47.216;39.684;2023-06-14T09:48:59;32.13;44.26
75275;HTU21D;63871;47.216;39.684;2023-06-14T09:51:26;32.35;43.72
75275;HTU21D;63871;47.216;39.684;2023-06-14T09:53:53;32.62;43.00
75275;HTU21D;63871;47.216;39.684;2023-06-14T09:56:27;32.75;41.31
75275;HTU21D;63871;47.216;39.684;2023-06-14T09:58:58;32.68;41.59
75275;HTU21D;63871;47.216;39.684;2023-06-14T10:01:25;32.68;41.98
75275;HTU21D;63871;47.216;39.684;2023-06-14T10:04:06;32.64;40.90
75275;HTU21D;63871;47.216;39.684;2023-06-14T10:06:41;32.59;41.36
75275;HTU21D;63871;47.216;39.684;2023-06-14T10:09:09;32.56;41.07
75275;HTU21D;63871;47.216;39.684;2023-06-14T10:11:36;32.70;41.22
75275;HTU21D;63871;47.216;39.684;2023-06-14T10:14:06;32.68;40.15
75275;HTU21D;63871;47.216;39.684;2023-06-14T10:16:36;32.67;41.74
75275;HTU21D;63871;47.216;39.684;2023-06-14T10:24:33;33.29;41.33
75275;HTU21D;63871;47.216;39.684;2023-06-14T10:26:59;33.46;40.36
75275;HTU21D;63871;47.216;39.684;2023-06-14T10:29:28;33.58;40.46
75275;HTU21D;63871;47.216;39.684;2023-06-14T10:31:59;33.59;39.81
75275;HTU21D;63871;47.216;39.684;2023-06-14T10:34:26;33.56;39.28
75275;HTU21D;63871;47.216;39.684;2023-06-14T10:37:05;33.40;38.59
75275;HTU21D;63871;47.216;39.684;2023-06-14T10:39:43;33.19;38.82
75275;HTU21D;63871;47.216;39.684;2023-06-14T10:42:10;32.83;40.07
75275;HTU21D;63871;47.216;39.684;2023-06-14T10:44:52;32.86;40.14
75275;HTU21D;63871;47.216;39.684;2023-06-14T10:50:03;33.09;38.54
75275;HTU21D;63871;47.216;39.684;2023-06-14T10:52:35;32.98;40.22
75275;HTU21D;63871;47.216;39.684;2023-06-14T10:55:11;33.15;40.26
75275;HTU21D;63871;47.216;39.684;2023-06-14T10:57:45;33.37;39.65
75275;HTU21D;63871;47.216;39.684;2023-06-14T11:00:12;33.41;38.78
75275;HTU21D;63871;47.216;39.684;2023-06-14T11:11:13;33.15;38.18
75275;HTU21D;63871;47.216;39.684;2023-06-14T11:13:44;33.17;38.81
75275;HTU21D;63871;47.216;39.684;2023-06-14T11:16:19;33.45;38.30
75275;HTU21D;63871;47.216;39.684;2023-06-14T11:18:45;33.57;39.03
75275;HTU21D;63871;47.216;39.684;2023-06-14T11:21:17;33.78;38.58
75275;HTU21D;63871;47.216;39.684;2023-06-14T11:23:52;33.85;36.87
75275;HTU21D;63871;47.216;39.684;2023-06-14T11:26:30;34.05;38.01
